sensor_id;sensor_type;location;lat;lon;timestamp;P1;durP1;ratioP1;P2;durP2;ratioP2
76795;SDS011;65745;50.278;18.192;2023-04-15T00:02:18;53.30;;;35.20;;
76795;SDS011;65745;50.278;18.192;2023-04-15T00:04:51;55.70;;;36.10;;
76795;SDS011;65745;50.278;18.192;2023-04-15T00:07:23;50.40;;;36.00;;
76795;SDS011;65745;50.278;18.192;2023-04-15T00:09:55;56.90;;;35.60;;
76795;SDS011;65745;50.278;18.192;2023-04-15T00:12:28;52.50;;;35.00;;
76795;SDS011;65745;50.278;18.192;2023-04-15T00:15:01;50.60;;;34.70;;
76795;SDS011;65745;50.278;18.192;2023-04-15T00:17:33;53.60;;;36.10;;
76795;SDS011;65745;50.278;18.192;2023-04-15T00:20:07;56.90;;;37.20;;
76795;SDS011;65745;50.278;18.192;2023-04-15T00:22:41;48.40;;;32.50;;
76795;SDS011;65745;50.278;18.192;2023-04-15T00:25:13;53.20;;;34.90;;
76795;SDS011;65745;50.278;18.192;2023-04-15T00:27:46;56.20;;;36.10;;
76795;SDS011;65745;50.278;18.192;2023-04-15T00:30:18;54.00;;;35.50;;
76795;SDS011;65745;50.278;18.192;2023-04-15T00:32:52;51.40;;;33.20;;
76795;SDS011;65745;50.278;18.192;2023-04-15T00:35:24;57.70;;;36.80;;
76795;SDS011;65745;50.278;18.192;2023-04-15T00:37:56;52.90;;;35.40;;
76795;SDS011;65745;50.278;18.192;2023-04-15T00:40:29;52.00;;;34.40;;
76795;SDS011;65745;50.278;18.192;2023-04-15T00:43:01;54.00;;;35.30;;
76795;SDS011;65745;50.278;18.192;2023-04-15T00:45:33;51.00;;;35.20;;
76795;SDS011;65745;50.278;18.192;2023-04-15T00:48:06;50.50;;;33.00;;
76795;SDS011;65745;50.278;18.192;2023-04-15T00:50:39;47.30;;;34.50;;
76795;SDS011;65745;50.278;18.192;2023-04-15T00:53:11;48.90;;;33.40;;
76795;SDS011;65745;50.278;18.192;2023-04-15T00:55:43;53.30;;;33.40;;
76795;SDS011;65745;50.278;18.192;2023-04-15T00:58:15;48.10;;;30.60;;
76795;SDS011;65745;50.278;18.192;2023-04-15T01:00:49;44.10;;;28.90;;
76795;SDS011;65745;50.278;18.192;2023-04-15T01:03:23;46.10;;;30.10;;
76795;SDS011;65745;50.278;18.192;2023-04-15T01:05:56;46.80;;;31.30;;
76795;SDS011;65745;50.278;18.192;2023-04-15T01:08:32;45.30;;;30.00;;
76795;SDS011;65745;50.278;18.192;2023-04-15T01:11:05;45.00;;;28.40;;
76795;SDS011;65745;50.278;18.192;2023-04-15T01:13:37;42.90;;;27.10;;
76795;SDS011;65745;50.278;18.192;2023-04-15T01:16:11;48.10;;;29.40;;
76795;SDS011;65745;50.278;18.192;2023-04-15T01:18:43;46.50;;;29.90;;
76795;SDS011;65745;50.278;18.192;2023-04-15T01:21:16;43.50;;;29.70;;
76795;SDS011;65745;50.278;18.192;2023-04-15T01:23:50;45.70;;;29.10;;
76795;SDS011;65745;50.278;18.192;2023-04-15T01:26:24;45.30;;;28.80;;
76795;SDS011;65745;50.278;18.192;2023-04-15T01:28:57;46.70;;;29.50;;
76795;SDS011;65745;50.278;18.192;2023-04-15T01:31:29;44.80;;;28.40;;
76795;SDS011;65745;50.278;18.192;2023-04-15T01:34:02;39.30;;;25.90;;
76795;SDS011;65745;50.278;18.192;2023-04-15T01:36:35;48.90;;;28.80;;
76795;SDS011;65745;50.278;18.192;2023-04-15T01:39:07;40.70;;;27.30;;
76795;SDS011;65745;50.278;18.192;2023-04-15T01:41:39;43.90;;;28.00;;
76795;SDS011;65745;50.278;18.192;2023-04-15T01:44:12;41.70;;;28.90;;
76795;SDS011;65745;50.278;18.192;2023-04-15T01:46:44;42.60;;;27.10;;
76795;SDS011;65745;50.278;18.192;2023-04-15T01:49:16;42.50;;;27.50;;
76795;SDS011;65745;50.278;18.192;2023-04-15T01:51:48;40.80;;;26.50;;
76795;SDS011;65745;50.278;18.192;2023-04-15T01:54:22;33.20;;;22.10;;
76795;SDS011;65745;50.278;18.192;2023-04-15T01:56:54;28.80;;;19.30;;
76795;SDS011;65745;50.278;18.192;2023-04-15T01:59:27;21.80;;;14.80;;
76795;SDS011;65745;50.278;18.192;2023-04-15T02:02:00;20.90;;;14.20;;
76795;SDS011;65745;50.278;18.192;2023-04-15T02:04:32;22.50;;;14.90;;
76795;SDS011;65745;50.278;18.192;2023-04-15T02:07:04;21.00;;;13.80;;
76795;SDS011;65745;50.278;18.192;2023-04-15T02:09:37;20.20;;;13.80;;
76795;SDS011;65745;50.278;18.192;2023-04-15T02:12:09;17.60;;;12.10;;
76795;SDS011;65745;50.278;18.192;2023-04-15T02:14:42;16.90;;;11.30;;
76795;SDS011;65745;50.278;18.192;2023-04-15T02:17:14;14.00;;;10.10;;
76795;SDS011;65745;50.278;18.192;2023-04-15T02:19:46;16.90;;;10.40;;
76795;SDS011;65745;50.278;18.192;2023-04-15T02:22:18;13.00;;;9.20;;
76795;SDS011;65745;50.278;18.192;2023-04-15T02:24:50;10.90;;;6.90;;
76795;SDS011;65745;50.278;18.192;2023-04-15T02:27:22;7.80;;;6.50;;
76795;SDS011;65745;50.278;18.192;2023-04-15T02:29:56;11.50;;;7.80;;
76795;SDS011;65745;50.278;18.192;2023-04-15T02:32:28;10.40;;;7.50;;
76795;SDS011;65745;50.278;18.192;2023-04-15T02:35:02;10.20;;;7.80;;
76795;SDS011;65745;50.278;18.192;2023-04-15T02:37:36;10.80;;;8.00;;
76795;SDS011;65745;50.278;18.192;2023-04-15T02:40:12;11.10;;;7.60;;
76795;SDS011;65745;50.278;18.192;2023-04-15T02:42:45;12.60;;;8.10;;
76795;SDS011;65745;50.278;18.192;2023-04-15T02:45:17;10.30;;;8.00;;
76795;SDS011;65745;50.278;18.192;2023-04-15T02:47:53;9.00;;;7.40;;
76795;SDS011;65745;50.278;18.192;2023-04-15T02:50:25;13.30;;;8.80;;
76795;SDS011;65745;50.278;18.192;2023-04-15T02:52:58;12.90;;;10.60;;
76795;SDS011;65745;50.278;18.192;2023-04-15T02:55:30;12.50;;;9.00;;
76795;SDS011;65745;50.278;18.192;2023-04-15T02:58:03;11.50;;;8.60;;
76795;SDS011;65745;50.278;18.192;2023-04-15T03:00:35;11.30;;;8.40;;
76795;SDS011;65745;50.278;18.192;2023-04-15T03:03:07;11.70;;;7.80;;
76795;SDS011;65745;50.278;18.192;2023-04-15T03:05:40;9.20;;;7.10;;
76795;SDS011;65745;50.278;18.192;2023-04-15T03:08:13;7.70;;;5.60;;
76795;SDS011;65745;50.278;18.192;2023-04-15T03:10:45;8.80;;;6.30;;
76795;SDS011;65745;50.278;18.192;2023-04-15T03:13:20;7.30;;;5.90;;
76795;SDS011;65745;50.278;18.192;2023-04-15T03:15:52;8.60;;;5.60;;
76795;SDS011;65745;50.278;18.192;2023-04-15T03:18:25;7.60;;;5.90;;
76795;SDS011;65745;50.278;18.192;2023-04-15T03:21:01;6.90;;;6.10;;
76795;SDS011;65745;50.278;18.192;2023-04-15T03:23:36;6.40;;;5.50;;
76795;SDS011;65745;50.278;18.192;2023-04-15T03:26:08;6.50;;;5.80;;
76795;SDS011;65745;50.278;18.192;2023-04-15T03:28:53;7.00;;;5.50;;
76795;SDS011;65745;50.278;18.192;2023-04-15T03:31:26;7.20;;;5.30;;
76795;SDS011;65745;50.278;18.192;2023-04-15T03:33:58;8.10;;;4.90;;
76795;SDS011;65745;50.278;18.192;2023-04-15T03:36:30;5.20;;;4.20;;
76795;SDS011;65745;50.278;18.192;2023-04-15T03:39:02;5.90;;;5.30;;
76795;SDS011;65745;50.278;18.192;2023-04-15T03:41:35;5.10;;;4.60;;
76795;SDS011;65745;50.278;18.192;2023-04-15T03:44:07;5.70;;;4.70;;
76795;SDS011;65745;50.278;18.192;2023-04-15T03:46:39;6.00;;;5.10;;
76795;SDS011;65745;50.278;18.192;2023-04-15T03:49:12;7.70;;;5.00;;
76795;SDS011;65745;50.278;18.192;2023-04-15T03:51:45;7.30;;;5.70;;
76795;SDS011;65745;50.278;18.192;2023-04-15T03:54:17;5.10;;;4.40;;
76795;SDS011;65745;50.278;18.192;2023-04-15T03:56:49;6.90;;;4.90;;
76795;SDS011;65745;50.278;18.192;2023-04-15T03:59:21;5.90;;;4.80;;
76795;SDS011;65745;50.278;18.192;2023-04-15T04:01:53;6.20;;;5.00;;
76795;SDS011;65745;50.278;18.192;2023-04-15T04:04:25;4.90;;;4.40;;
76795;SDS011;65745;50.278;18.192;2023-04-15T04:06:58;4.70;;;3.80;;
76795;SDS011;65745;50.278;18.192;2023-04-15T04:09:30;6.50;;;4.90;;
76795;SDS011;65745;50.278;18.192;2023-04-15T04:12:02;6.50;;;5.20;;
76795;SDS011;65745;50.278;18.192;2023-04-15T04:14:35;6.50;;;5.10;;
76795;SDS011;65745;50.278;18.192;2023-04-15T04:17:07;7.10;;;5.10;;
76795;SDS011;65745;50.278;18.192;2023-04-15T04:19:39;6.80;;;4.70;;
76795;SDS011;65745;50.278;18.192;2023-04-15T04:22:12;6.80;;;5.30;;
76795;SDS011;65745;50.278;18.192;2023-04-15T04:24:44;7.10;;;6.00;;
76795;SDS011;65745;50.278;18.192;2023-04-15T04:27:16;6.40;;;5.50;;
76795;SDS011;65745;50.278;18.192;2023-04-15T04:29:48;7.40;;;5.60;;
76795;SDS011;65745;50.278;18.192;2023-04-15T04:32:20;6.50;;;5.20;;
76795;SDS011;65745;50.278;18.192;2023-04-15T04:34:52;7.00;;;5.80;;
76795;SDS011;65745;50.278;18.192;2023-04-15T04:37:25;6.60;;;5.30;;
76795;SDS011;65745;50.278;18.192;2023-04-15T04:39:57;7.90;;;6.00;;
76795;SDS011;65745;50.278;18.192;2023-04-15T04:42:29;7.10;;;5.30;;
76795;SDS011;65745;50.278;18.192;2023-04-15T04:45:01;6.70;;;5.60;;
76795;SDS011;65745;50.278;18.192;2023-04-15T04:47:33;11.90;;;7.20;;
76795;SDS011;65745;50.278;18.192;2023-04-15T04:50:07;13.60;;;9.10;;
76795;SDS011;65745;50.278;18.192;2023-04-15T04:52:39;132.20;;;66.80;;
76795;SDS011;65745;50.278;18.192;2023-04-15T04:55:11;145.50;;;71.00;;
76795;SDS011;65745;50.278;18.192;2023-04-15T04:57:44;131.50;;;65.70;;
76795;SDS011;65745;50.278;18.192;2023-04-15T05:00:16;89.80;;;47.20;;
76795;SDS011;65745;50.278;18.192;2023-04-15T05:02:49;33.90;;;21.50;;
76795;SDS011;65745;50.278;18.192;2023-04-15T05:05:21;16.40;;;11.10;;
76795;SDS011;65745;50.278;18.192;2023-04-15T05:07:54;20.80;;;12.80;;
76795;SDS011;65745;50.278;18.192;2023-04-15T05:10:26;22.70;;;12.50;;
76795;SDS011;65745;50.278;18.192;2023-04-15T05:12:58;18.40;;;10.40;;
76795;SDS011;65745;50.278;18.192;2023-04-15T05:15:31;26.10;;;14.30;;
76795;SDS011;65745;50.278;18.192;2023-04-15T05:18:05;25.60;;;14.20;;
76795;SDS011;65745;50.278;18.192;2023-04-15T05:20:37;17.80;;;11.60;;
76795;SDS011;65745;50.278;18.192;2023-04-15T05:23:09;15.30;;;9.90;;
76795;SDS011;65745;50.278;18.192;2023-04-15T05:25:42;13.00;;;10.00;;
76795;SDS011;65745;50.278;18.192;2023-04-15T05:28:14;16.40;;;13.60;;
76795;SDS011;65745;50.278;18.192;2023-04-15T05:30:46;16.60;;;11.30;;
76795;SDS011;65745;50.278;18.192;2023-04-15T05:33:19;13.60;;;9.90;;
76795;SDS011;65745;50.278;18.192;2023-04-15T05:35:51;11.40;;;9.20;;
76795;SDS011;65745;50.278;18.192;2023-04-15T05:38:23;11.80;;;8.70;;
76795;SDS011;65745;50.278;18.192;2023-04-15T05:40:55;9.90;;;8.30;;
76795;SDS011;65745;50.278;18.192;2023-04-15T05:43:28;9.90;;;8.30;;
76795;SDS011;65745;50.278;18.192;2023-04-15T05:46:00;11.70;;;8.90;;
76795;SDS011;65745;50.278;18.192;2023-04-15T05:48:32;22.30;;;15.00;;
76795;SDS011;65745;50.278;18.192;2023-04-15T05:51:05;21.90;;;15.10;;
76795;SDS011;65745;50.278;18.192;2023-04-15T05:53:39;12.20;;;10.20;;
76795;SDS011;65745;50.278;18.192;2023-04-15T05:56:11;10.90;;;7.90;;
76795;SDS011;65745;50.278;18.192;2023-04-15T05:58:43;10.20;;;8.60;;
76795;SDS011;65745;50.278;18.192;2023-04-15T06:01:15;10.00;;;8.90;;
76795;SDS011;65745;50.278;18.192;2023-04-15T06:03:47;24.90;;;13.60;;
76795;SDS011;65745;50.278;18.192;2023-04-15T06:06:19;24.50;;;13.30;;
76795;SDS011;65745;50.278;18.192;2023-04-15T06:08:52;13.70;;;8.70;;
76795;SDS011;65745;50.278;18.192;2023-04-15T06:11:25;13.20;;;9.20;;
76795;SDS011;65745;50.278;18.192;2023-04-15T06:13:58;42.50;;;22.10;;
76795;SDS011;65745;50.278;18.192;2023-04-15T06:16:30;16.50;;;14.10;;
76795;SDS011;65745;50.278;18.192;2023-04-15T06:19:02;10.50;;;7.20;;
76795;SDS011;65745;50.278;18.192;2023-04-15T06:21:34;13.80;;;8.30;;
76795;SDS011;65745;50.278;18.192;2023-04-15T06:24:07;7.80;;;6.90;;
76795;SDS011;65745;50.278;18.192;2023-04-15T06:26:39;7.00;;;6.10;;
76795;SDS011;65745;50.278;18.192;2023-04-15T06:29:11;8.40;;;6.60;;
76795;SDS011;65745;50.278;18.192;2023-04-15T06:31:43;8.30;;;5.10;;
76795;SDS011;65745;50.278;18.192;2023-04-15T06:34:16;8.00;;;6.50;;
76795;SDS011;65745;50.278;18.192;2023-04-15T06:36:49;7.00;;;5.80;;
76795;SDS011;65745;50.278;18.192;2023-04-15T06:39:22;6.50;;;5.40;;
76795;SDS011;65745;50.278;18.192;2023-04-15T06:41:55;7.40;;;6.30;;
76795;SDS011;65745;50.278;18.192;2023-04-15T06:44:27;7.60;;;6.10;;
76795;SDS011;65745;50.278;18.192;2023-04-15T06:47:02;6.90;;;5.40;;
76795;SDS011;65745;50.278;18.192;2023-04-15T06:49:34;8.40;;;5.50;;
76795;SDS011;65745;50.278;18.192;2023-04-15T06:52:06;5.80;;;4.40;;
76795;SDS011;65745;50.278;18.192;2023-04-15T06:54:39;4.80;;;4.10;;
76795;SDS011;65745;50.278;18.192;2023-04-15T06:57:11;5.20;;;4.20;;
76795;SDS011;65745;50.278;18.192;2023-04-15T06:59:44;6.40;;;5.10;;
76795;SDS011;65745;50.278;18.192;2023-04-15T07:02:16;5.90;;;5.20;;
76795;SDS011;65745;50.278;18.192;2023-04-15T07:04:48;5.30;;;4.50;;
76795;SDS011;65745;50.278;18.192;2023-04-15T07:07:21;5.30;;;4.40;;
76795;SDS011;65745;50.278;18.192;2023-04-15T07:09:53;4.90;;;4.40;;
76795;SDS011;65745;50.278;18.192;2023-04-15T07:12:25;6.50;;;5.40;;
76795;SDS011;65745;50.278;18.192;2023-04-15T07:14:58;7.00;;;5.30;;
76795;SDS011;65745;50.278;18.192;2023-04-15T07:17:30;5.90;;;5.10;;
76795;SDS011;65745;50.278;18.192;2023-04-15T07:20:03;7.00;;;6.30;;
76795;SDS011;65745;50.278;18.192;2023-04-15T07:22:37;7.30;;;5.90;;
76795;SDS011;65745;50.278;18.192;2023-04-15T07:25:09;8.80;;;6.30;;
76795;SDS011;65745;50.278;18.192;2023-04-15T07:27:42;6.60;;;5.70;;
76795;SDS011;65745;50.278;18.192;2023-04-15T07:30:14;4.50;;;3.80;;
76795;SDS011;65745;50.278;18.192;2023-04-15T07:32:47;7.80;;;5.40;;
76795;SDS011;65745;50.278;18.192;2023-04-15T07:35:19;4.40;;;3.70;;
76795;SDS011;65745;50.278;18.192;2023-04-15T07:37:52;4.20;;;3.60;;
76795;SDS011;65745;50.278;18.192;2023-04-15T07:40:24;5.10;;;4.10;;
76795;SDS011;65745;50.278;18.192;2023-04-15T07:42:56;4.60;;;3.70;;
76795;SDS011;65745;50.278;18.192;2023-04-15T07:45:29;4.80;;;3.80;;
76795;SDS011;65745;50.278;18.192;2023-04-15T07:48:01;4.20;;;3.40;;
76795;SDS011;65745;50.278;18.192;2023-04-15T07:50:34;3.80;;;3.30;;
76795;SDS011;65745;50.278;18.192;2023-04-15T07:53:07;5.00;;;3.90;;
76795;SDS011;65745;50.278;18.192;2023-04-15T07:55:39;66.80;;;32.60;;
76795;SDS011;65745;50.278;18.192;2023-04-15T07:58:11;8.50;;;5.40;;
76795;SDS011;65745;50.278;18.192;2023-04-15T08:00:43;5.10;;;4.20;;
76795;SDS011;65745;50.278;18.192;2023-04-15T08:03:16;5.00;;;4.20;;
76795;SDS011;65745;50.278;18.192;2023-04-15T08:05:48;4.90;;;3.90;;
76795;SDS011;65745;50.278;18.192;2023-04-15T08:08:20;4.40;;;3.50;;
76795;SDS011;65745;50.278;18.192;2023-04-15T08:10:53;5.80;;;4.20;;
76795;SDS011;65745;50.278;18.192;2023-04-15T08:13:26;4.10;;;3.40;;
76795;SDS011;65745;50.278;18.192;2023-04-15T08:16:15;4.90;;;3.60;;
76795;SDS011;65745;50.278;18.192;2023-04-15T08:18:49;4.90;;;3.40;;
76795;SDS011;65745;50.278;18.192;2023-04-15T08:21:22;3.80;;;3.40;;
76795;SDS011;65745;50.278;18.192;2023-04-15T08:23:55;3.10;;;2.60;;
76795;SDS011;65745;50.278;18.192;2023-04-15T08:26:28;3.80;;;2.80;;
76795;SDS011;65745;50.278;18.192;2023-04-15T08:29:00;2.90;;;2.50;;
76795;SDS011;65745;50.278;18.192;2023-04-15T08:31:33;3.70;;;2.90;;
76795;SDS011;65745;50.278;18.192;2023-04-15T08:34:05;4.50;;;3.40;;
76795;SDS011;65745;50.278;18.192;2023-04-15T08:36:38;4.10;;;3.50;;
76795;SDS011;65745;50.278;18.192;2023-04-15T08:42:22;3.50;;;2.40;;
76795;SDS011;65745;50.278;18.192;2023-04-15T08:45:00;3.80;;;2.90;;
76795;SDS011;65745;50.278;18.192;2023-04-15T08:47:38;3.00;;;2.20;;
76795;SDS011;65745;50.278;18.192;2023-04-15T08:50:12;2.90;;;2.10;;
76795;SDS011;65745;50.278;18.192;2023-04-15T08:52:46;3.50;;;2.60;;
76795;SDS011;65745;50.278;18.192;2023-04-15T08:55:18;4.20;;;2.50;;
76795;SDS011;65745;50.278;18.192;2023-04-15T08:57:52;3.40;;;2.50;;
76795;SDS011;65745;50.278;18.192;2023-04-15T09:00:24;3.90;;;2.70;;
76795;SDS011;65745;50.278;18.192;2023-04-15T09:02:57;3.70;;;2.90;;
76795;SDS011;65745;50.278;18.192;2023-04-15T09:05:31;3.80;;;2.60;;
76795;SDS011;65745;50.278;18.192;2023-04-15T09:08:04;3.20;;;2.40;;
76795;SDS011;65745;50.278;18.192;2023-04-15T09:10:37;4.50;;;3.00;;
76795;SDS011;65745;50.278;18.192;2023-04-15T09:13:09;2.90;;;2.30;;
76795;SDS011;65745;50.278;18.192;2023-04-15T09:15:42;3.20;;;2.20;;
76795;SDS011;65745;50.278;18.192;2023-04-15T09:18:14;2.70;;;2.30;;
76795;SDS011;65745;50.278;18.192;2023-04-15T09:21:04;3.10;;;2.40;;
76795;SDS011;65745;50.278;18.192;2023-04-15T09:23:39;3.90;;;3.00;;
76795;SDS011;65745;50.278;18.192;2023-04-15T09:26:31;3.40;;;2.30;;
76795;SDS011;65745;50.278;18.192;2023-04-15T09:29:05;3.60;;;3.10;;
76795;SDS011;65745;50.278;18.192;2023-04-15T09:31:38;3.70;;;2.50;;
76795;SDS011;65745;50.278;18.192;2023-04-15T09:34:11;3.30;;;2.30;;
76795;SDS011;65745;50.278;18.192;2023-04-15T09:36:53;4.70;;;2.60;;
76795;SDS011;65745;50.278;18.192;2023-04-15T09:39:26;3.30;;;2.60;;
76795;SDS011;65745;50.278;18.192;2023-04-15T09:42:14;3.20;;;2.20;;
76795;SDS011;65745;50.278;18.192;2023-04-15T09:44:52;3.80;;;2.20;;
76795;SDS011;65745;50.278;18.192;2023-04-15T09:47:27;2.50;;;2.10;;
76795;SDS011;65745;50.278;18.192;2023-04-15T09:50:00;3.00;;;2.40;;
76795;SDS011;65745;50.278;18.192;2023-04-15T09:52:33;3.30;;;2.70;;
76795;SDS011;65745;50.278;18.192;2023-04-15T09:55:12;2.60;;;2.10;;
76795;SDS011;65745;50.278;18.192;2023-04-15T09:57:47;2.90;;;2.30;;
76795;SDS011;65745;50.278;18.192;2023-04-15T10:00:19;4.20;;;2.80;;
76795;SDS011;65745;50.278;18.192;2023-04-15T10:02:51;3.10;;;2.60;;
76795;SDS011;65745;50.278;18.192;2023-04-15T10:05:24;3.50;;;2.60;;
76795;SDS011;65745;50.278;18.192;2023-04-15T10:07:58;3.30;;;2.40;;
76795;SDS011;65745;50.278;18.192;2023-04-15T10:10:32;4.10;;;2.60;;
76795;SDS011;65745;50.278;18.192;2023-04-15T10:13:05;3.40;;;2.50;;
76795;SDS011;65745;50.278;18.192;2023-04-15T10:15:39;9.00;;;5.60;;
76795;SDS011;65745;50.278;18.192;2023-04-15T10:18:15;3.60;;;2.60;;
76795;SDS011;65745;50.278;18.192;2023-04-15T10:20:50;2.60;;;2.00;;
76795;SDS011;65745;50.278;18.192;2023-04-15T10:23:23;2.60;;;2.00;;
76795;SDS011;65745;50.278;18.192;2023-04-15T10:25:57;2.80;;;2.50;;
76795;SDS011;65745;50.278;18.192;2023-04-15T10:28:30;4.10;;;2.20;;
76795;SDS011;65745;50.278;18.192;2023-04-15T10:31:02;2.80;;;2.30;;
76795;SDS011;65745;50.278;18.192;2023-04-15T10:33:36;2.70;;;1.90;;
76795;SDS011;65745;50.278;18.192;2023-04-15T10:36:09;3.20;;;2.00;;
76795;SDS011;65745;50.278;18.192;2023-04-15T10:38:43;3.00;;;2.10;;
76795;SDS011;65745;50.278;18.192;2023-04-15T10:41:17;2.80;;;2.20;;
76795;SDS011;65745;50.278;18.192;2023-04-15T10:43:51;2.80;;;2.00;;
76795;SDS011;65745;50.278;18.192;2023-04-15T10:46:35;2.10;;;1.80;;
76795;SDS011;65745;50.278;18.192;2023-04-15T10:49:24;3.00;;;2.20;;
76795;SDS011;65745;50.278;18.192;2023-04-15T10:51:57;3.10;;;2.20;;
76795;SDS011;65745;50.278;18.192;2023-04-15T10:54:31;3.10;;;2.40;;
76795;SDS011;65745;50.278;18.192;2023-04-15T10:57:13;3.80;;;2.80;;
76795;SDS011;65745;50.278;18.192;2023-04-15T11:00:02;3.30;;;2.20;;
76795;SDS011;65745;50.278;18.192;2023-04-15T11:02:43;2.70;;;2.20;;
76795;SDS011;65745;50.278;18.192;2023-04-15T11:05:17;3.10;;;2.50;;
76795;SDS011;65745;50.278;18.192;2023-04-15T11:07:52;3.10;;;2.30;;
76795;SDS011;65745;50.278;18.192;2023-04-15T11:13:27;3.30;;;2.40;;
76795;SDS011;65745;50.278;18.192;2023-04-15T11:16:02;3.00;;;2.40;;
76795;SDS011;65745;50.278;18.192;2023-04-15T11:18:35;3.50;;;2.80;;
76795;SDS011;65745;50.278;18.192;2023-04-15T11:21:08;2.90;;;2.30;;
76795;SDS011;65745;50.278;18.192;2023-04-15T11:23:40;3.50;;;2.80;;
76795;SDS011;65745;50.278;18.192;2023-04-15T11:26:15;3.50;;;2.70;;
76795;SDS011;65745;50.278;18.192;2023-04-15T11:28:47;4.70;;;3.10;;
76795;SDS011;65745;50.278;18.192;2023-04-15T11:31:20;5.10;;;3.20;;
76795;SDS011;65745;50.278;18.192;2023-04-15T11:33:55;4.10;;;2.60;;
76795;SDS011;65745;50.278;18.192;2023-04-15T11:36:30;3.70;;;2.60;;
76795;SDS011;65745;50.278;18.192;2023-04-15T11:39:03;3.10;;;2.70;;
76795;SDS011;65745;50.278;18.192;2023-04-15T11:41:39;3.80;;;3.10;;
76795;SDS011;65745;50.278;18.192;2023-04-15T11:44:16;4.20;;;2.60;;
76795;SDS011;65745;50.278;18.192;2023-04-15T11:46:48;3.20;;;2.70;;
76795;SDS011;65745;50.278;18.192;2023-04-15T11:49:30;4.10;;;2.50;;
76795;SDS011;65745;50.278;18.192;2023-04-15T11:52:05;4.60;;;2.70;;
76795;SDS011;65745;50.278;18.192;2023-04-15T11:54:41;7.20;;;5.00;;
76795;SDS011;65745;50.278;18.192;2023-04-15T11:57:14;7.50;;;4.10;;
76795;SDS011;65745;50.278;18.192;2023-04-15T11:59:46;3.00;;;2.70;;
76795;SDS011;65745;50.278;18.192;2023-04-15T12:02:19;4.00;;;2.70;;
76795;SDS011;65745;50.278;18.192;2023-04-15T12:05:04;6.00;;;2.90;;
76795;SDS011;65745;50.278;18.192;2023-04-15T12:10:32;3.70;;;2.90;;
76795;SDS011;65745;50.278;18.192;2023-04-15T12:13:06;3.70;;;2.40;;
76795;SDS011;65745;50.278;18.192;2023-04-15T12:15:40;4.80;;;3.00;;
76795;SDS011;65745;50.278;18.192;2023-04-15T12:18:18;5.50;;;3.00;;
76795;SDS011;65745;50.278;18.192;2023-04-15T12:20:50;2.90;;;2.40;;
76795;SDS011;65745;50.278;18.192;2023-04-15T12:23:22;4.30;;;2.60;;
76795;SDS011;65745;50.278;18.192;2023-04-15T12:25:54;4.20;;;3.00;;
76795;SDS011;65745;50.278;18.192;2023-04-15T12:28:29;3.60;;;2.60;;
76795;SDS011;65745;50.278;18.192;2023-04-15T12:31:06;3.20;;;2.10;;
76795;SDS011;65745;50.278;18.192;2023-04-15T12:33:40;3.80;;;2.60;;
76795;SDS011;65745;50.278;18.192;2023-04-15T12:36:12;3.00;;;2.50;;
76795;SDS011;65745;50.278;18.192;2023-04-15T12:38:45;3.30;;;2.40;;
76795;SDS011;65745;50.278;18.192;2023-04-15T12:41:17;3.30;;;2.20;;
76795;SDS011;65745;50.278;18.192;2023-04-15T12:43:52;2.90;;;2.40;;
76795;SDS011;65745;50.278;18.192;2023-04-15T12:46:25;3.20;;;2.60;;
76795;SDS011;65745;50.278;18.192;2023-04-15T12:48:57;3.20;;;2.30;;
76795;SDS011;65745;50.278;18.192;2023-04-15T12:51:29;3.40;;;2.30;;
76795;SDS011;65745;50.278;18.192;2023-04-15T12:54:02;3.50;;;2.50;;
76795;SDS011;65745;50.278;18.192;2023-04-15T12:56:34;5.20;;;2.60;;
76795;SDS011;65745;50.278;18.192;2023-04-15T12:59:07;3.30;;;2.10;;
76795;SDS011;65745;50.278;18.192;2023-04-15T13:01:39;4.00;;;2.70;;
76795;SDS011;65745;50.278;18.192;2023-04-15T13:04:11;2.90;;;2.40;;
76795;SDS011;65745;50.278;18.192;2023-04-15T13:06:44;3.70;;;2.40;;
76795;SDS011;65745;50.278;18.192;2023-04-15T13:09:17;2.40;;;2.00;;
76795;SDS011;65745;50.278;18.192;2023-04-15T13:11:49;3.20;;;2.80;;
76795;SDS011;65745;50.278;18.192;2023-04-15T13:14:22;23.30;;;15.70;;
76795;SDS011;65745;50.278;18.192;2023-04-15T13:16:55;3.60;;;2.80;;
76795;SDS011;65745;50.278;18.192;2023-04-15T13:19:27;5.30;;;3.00;;
76795;SDS011;65745;50.278;18.192;2023-04-15T13:22:00;3.80;;;2.40;;
76795;SDS011;65745;50.278;18.192;2023-04-15T13:24:32;3.10;;;2.40;;
76795;SDS011;65745;50.278;18.192;2023-04-15T13:27:05;3.40;;;2.90;;
76795;SDS011;65745;50.278;18.192;2023-04-15T13:29:37;4.30;;;3.40;;
76795;SDS011;65745;50.278;18.192;2023-04-15T13:32:10;18.30;;;10.70;;
76795;SDS011;65745;50.278;18.192;2023-04-15T13:34:42;5.90;;;4.60;;
76795;SDS011;65745;50.278;18.192;2023-04-15T13:37:15;8.50;;;6.80;;
76795;SDS011;65745;50.278;18.192;2023-04-15T13:39:48;17.60;;;12.70;;
76795;SDS011;65745;50.278;18.192;2023-04-15T13:42:20;7.90;;;6.50;;
76795;SDS011;65745;50.278;18.192;2023-04-15T13:44:52;16.50;;;12.20;;
76795;SDS011;65745;50.278;18.192;2023-04-15T13:47:24;9.80;;;7.60;;
76795;SDS011;65745;50.278;18.192;2023-04-15T13:49:57;13.30;;;9.80;;
76795;SDS011;65745;50.278;18.192;2023-04-15T13:52:29;19.00;;;16.60;;
76795;SDS011;65745;50.278;18.192;2023-04-15T13:55:02;8.70;;;7.90;;
76795;SDS011;65745;50.278;18.192;2023-04-15T13:57:51;3.30;;;3.00;;
76795;SDS011;65745;50.278;18.192;2023-04-15T14:00:24;13.90;;;12.80;;
76795;SDS011;65745;50.278;18.192;2023-04-15T14:02:56;7.50;;;6.60;;
76795;SDS011;65745;50.278;18.192;2023-04-15T14:05:29;10.60;;;9.20;;
76795;SDS011;65745;50.278;18.192;2023-04-15T14:08:01;6.00;;;5.40;;
76795;SDS011;65745;50.278;18.192;2023-04-15T14:10:34;23.70;;;15.30;;
76795;SDS011;65745;50.278;18.192;2023-04-15T14:13:07;6.20;;;5.50;;
76795;SDS011;65745;50.278;18.192;2023-04-15T14:15:39;5.10;;;4.60;;
76795;SDS011;65745;50.278;18.192;2023-04-15T14:18:12;44.90;;;23.30;;
76795;SDS011;65745;50.278;18.192;2023-04-15T14:20:44;24.80;;;14.00;;
76795;SDS011;65745;50.278;18.192;2023-04-15T14:23:16;6.20;;;4.90;;
76795;SDS011;65745;50.278;18.192;2023-04-15T14:25:49;5.20;;;4.20;;
76795;SDS011;65745;50.278;18.192;2023-04-15T14:28:22;6.50;;;5.50;;
76795;SDS011;65745;50.278;18.192;2023-04-15T14:30:56;13.90;;;10.20;;
76795;SDS011;65745;50.278;18.192;2023-04-15T14:33:29;22.60;;;20.40;;
76795;SDS011;65745;50.278;18.192;2023-04-15T14:36:02;23.70;;;19.30;;
76795;SDS011;65745;50.278;18.192;2023-04-15T14:38:36;13.30;;;11.10;;
76795;SDS011;65745;50.278;18.192;2023-04-15T14:41:09;25.10;;;21.50;;
76795;SDS011;65745;50.278;18.192;2023-04-15T14:43:42;41.40;;;35.00;;
76795;SDS011;65745;50.278;18.192;2023-04-15T14:46:14;51.20;;;28.90;;
76795;SDS011;65745;50.278;18.192;2023-04-15T14:48:50;39.00;;;21.10;;
76795;SDS011;65745;50.278;18.192;2023-04-15T14:51:22;45.50;;;23.30;;
76795;SDS011;65745;50.278;18.192;2023-04-15T14:53:55;24.40;;;13.70;;
76795;SDS011;65745;50.278;18.192;2023-04-15T14:56:27;42.90;;;21.20;;
76795;SDS011;65745;50.278;18.192;2023-04-15T14:59:00;41.20;;;20.40;;
76795;SDS011;65745;50.278;18.192;2023-04-15T15:01:33;17.10;;;10.00;;
76795;SDS011;65745;50.278;18.192;2023-04-15T15:04:06;17.20;;;9.40;;
76795;SDS011;65745;50.278;18.192;2023-04-15T15:06:41;16.60;;;8.50;;
76795;SDS011;65745;50.278;18.192;2023-04-15T15:09:17;11.40;;;6.00;;
76795;SDS011;65745;50.278;18.192;2023-04-15T15:11:52;5.70;;;4.30;;